sensor_id;sensor_type;location;lat;lon;timestamp;pressure;altitude;pressure_sealevel;temperature;humidity
31088;BME280;17745;55.914;37.554;2023-05-27T07:02:36;99042.50;;;20.88;31.06
31088;BME280;17745;55.914;37.554;2023-05-27T07:06:31;99047.56;;;20.89;30.46
31088;BME280;17745;55.914;37.554;2023-05-27T08:29:36;99063.31;;;20.99;31.18
31088;BME280;17745;55.914;37.554;2023-05-27T08:32:52;99085.50;;;21.48;30.93
31088;BME280;17745;55.914;37.554;2023-05-27T08:39:33;99082.03;;;20.96;32.08
31088;BME280;17745;55.914;37.554;2023-05-27T08:57:27;99064.53;;;21.11;32.04
31088;BME280;17745;55.914;37.554;2023-05-27T09:04:43;99036.81;;;21.53;31.18
31088;BME280;17745;55.914;37.554;2023-05-27T09:07:52;99073.97;;;20.48;32.74
31088;BME280;17745;55.914;37.554;2023-05-27T09:17:52;99067.09;;;21.92;32.04
31088;BME280;17745;55.914;37.554;2023-05-27T09:23:38;99048.91;;;21.04;31.02
31088;BME280;17745;55.914;37.554;2023-05-27T09:26:16;99091.94;;;20.83;31.71
31088;BME280;17745;55.914;37.554;2023-05-27T09:28:47;99064.50;;;20.51;31.48
31088;BME280;17745;55.914;37.554;2023-05-27T09:31:48;99060.53;;;21.60;30.40
31088;BME280;17745;55.914;37.554;2023-05-27T09:38:08;99075.75;;;21.98;30.87
31088;BME280;17745;55.914;37.554;2023-05-27T09:40:50;99065.28;;;22.30;30.56
31088;BME280;17745;55.914;37.554;2023-05-27T09:43:40;99040.03;;;22.47;30.22
31088;BME280;17745;55.914;37.554;2023-05-27T09:50:27;99072.91;;;21.82;30.56
31088;BME280;17745;55.914;37.554;2023-05-27T13:11:29;99045.69;;;29.83;15.93
31088;BME280;17745;55.914;37.554;2023-05-27T14:53:11;99042.63;;;24.04;22.47
31088;BME280;17745;55.914;37.554;2023-05-27T14:56:58;99049.63;;;25.60;21.59
31088;BME280;17745;55.914;37.554;2023-05-27T15:00:05;99035.50;;;26.14;20.03
31088;BME280;17745;55.914;37.554;2023-05-27T15:03:09;99050.72;;;25.55;20.28
31088;BME280;17745;55.914;37.554;2023-05-27T15:05:45;99034.94;;;24.38;21.34
31088;BME280;17745;55.914;37.554;2023-05-27T15:16:12;99050.56;;;23.27;23.12
31088;BME280;17745;55.914;37.554;2023-05-27T16:14:32;99088.84;;;22.21;26.60
31088;BME280;17745;55.914;37.554;2023-05-27T16:17:50;99105.31;;;21.73;27.40
31088;BME280;17745;55.914;37.554;2023-05-27T17:38:34;99162.84;;;18.97;30.33
31088;BME280;17745;55.914;37.554;2023-05-27T17:46:05;99159.44;;;18.82;29.97
31088;BME280;17745;55.914;37.554;2023-05-27T17:52:30;99150.22;;;18.66;29.74
31088;BME280;17745;55.914;37.554;2023-05-27T18:08:58;99175.28;;;18.93;29.00
31088;BME280;17745;55.914;37.554;2023-05-27T18:12:15;99160.88;;;18.80;29.10
31088;BME280;17745;55.914;37.554;2023-05-27T18:16:41;99171.91;;;18.78;29.19
31088;BME280;17745;55.914;37.554;2023-05-27T18:31:24;99177.19;;;18.38;30.06
31088;BME280;17745;55.914;37.554;2023-05-27T18:34:22;99181.38;;;18.53;29.93
31088;BME280;17745;55.914;37.554;2023-05-27T18:37:45;99172.09;;;18.27;30.33
31088;BME280;17745;55.914;37.554;2023-05-27T18:40:16;99159.81;;;18.12;30.64
31088;BME280;17745;55.914;37.554;2023-05-27T18:50:20;99180.56;;;17.56;32.01
31088;BME280;17745;55.914;37.554;2023-05-27T18:52:51;99183.94;;;17.62;32.03
31088;BME280;17745;55.914;37.554;2023-05-27T18:55:26;99174.03;;;17.48;32.21
31088;BME280;17745;55.914;37.554;2023-05-27T18:58:15;99160.22;;;17.69;31.89
31088;BME280;17745;55.914;37.554;2023-05-27T19:00:59;99187.34;;;16.78;33.29
31088;BME280;17745;55.914;37.554;2023-05-27T19:03:31;99177.13;;;16.66;33.72
31088;BME280;17745;55.914;37.554;2023-05-27T19:06:20;99187.06;;;16.94;33.36
31088;BME280;17745;55.914;37.554;2023-05-27T19:09:35;99191.44;;;16.90;33.50
31088;BME280;17745;55.914;37.554;2023-05-27T19:12:23;99157.19;;;17.06;33.32
31088;BME280;17745;55.914;37.554;2023-05-27T19:15:27;99189.84;;;16.89;33.81
31088;BME280;17745;55.914;37.554;2023-05-27T19:18:12;99181.31;;;16.39;34.83
31088;BME280;17745;55.914;37.554;2023-05-27T19:48:49;99180.91;;;15.94;36.40
31088;BME280;17745;55.914;37.554;2023-05-27T19:51:30;99189.53;;;16.24;35.92
31088;BME280;17745;55.914;37.554;2023-05-27T19:54:30;99186.84;;;15.85;36.55
31088;BME280;17745;55.914;37.554;2023-05-27T20:00:53;99194.13;;;15.80;36.70
31088;BME280;17745;55.914;37.554;2023-05-27T20:08:22;99176.56;;;15.98;36.38
31088;BME280;17745;55.914;37.554;2023-05-27T20:11:23;99196.00;;;16.04;36.27
31088;BME280;17745;55.914;37.554;2023-05-27T20:14:13;99174.53;;;15.90;36.49
31088;BME280;17745;55.914;37.554;2023-05-27T20:17:24;99177.87;;;15.57;37.10
31088;BME280;17745;55.914;37.554;2023-05-27T20:20:13;99183.06;;;15.24;37.61
31088;BME280;17745;55.914;37.554;2023-05-27T20:23:51;99184.94;;;15.48;37.30
31088;BME280;17745;55.914;37.554;2023-05-27T20:26:32;99168.75;;;15.39;37.46
31088;BME280;17745;55.914;37.554;2023-05-27T20:30:24;99183.69;;;15.40;37.39
31088;BME280;17745;55.914;37.554;2023-05-27T20:33:33;99199.97;;;15.38;37.41
31088;BME280;17745;55.914;37.554;2023-05-27T20:36:19;99191.78;;;15.54;37.07
31088;BME280;17745;55.914;37.554;2023-05-27T20:39:01;99176.25;;;15.37;37.35
31088;BME280;17745;55.914;37.554;2023-05-27T20:41:34;99182.75;;;15.31;37.41
31088;BME280;17745;55.914;37.554;2023-05-27T20:44:10;99194.75;;;14.69;38.64
31088;BME280;17745;55.914;37.554;2023-05-27T20:46:41;99189.03;;;14.51;39.04
31088;BME280;17745;55.914;37.554;2023-05-27T20:49:12;99189.53;;;14.88;38.46
31088;BME280;17745;55.914;37.554;2023-05-27T20:51:46;99186.66;;;15.14;38.05
31088;BME280;17745;55.914;37.554;2023-05-27T20:54:20;99202.47;;;14.36;39.98
31088;BME280;17745;55.914;37.554;2023-05-27T21:00:34;99181.94;;;14.76;39.74
31088;BME280;17745;55.914;37.554;2023-05-27T21:03:06;99183.81;;;14.76;39.90
31088;BME280;17745;55.914;37.554;2023-05-27T21:05:38;99188.97;;;14.62;40.55
31088;BME280;17745;55.914;37.554;2023-05-27T21:08:09;99193.25;;;14.57;40.93
31088;BME280;17745;55.914;37.554;2023-05-27T21:10:39;99199.38;;;14.58;41.09
31088;BME280;17745;55.914;37.554;2023-05-27T21:13:11;99194.31;;;14.62;41.10
31088;BME280;17745;55.914;37.554;2023-05-27T21:15:43;99179.25;;;14.76;40.91
31088;BME280;17745;55.914;37.554;2023-05-27T21:18:16;99179.72;;;14.14;42.61
31088;BME280;17745;55.914;37.554;2023-05-27T21:20:44;99183.25;;;14.44;42.00
31088;BME280;17745;55.914;37.554;2023-05-27T21:23:24;99184.66;;;14.66;41.59
31088;BME280;17745;55.914;37.554;2023-05-27T21:26:09;99188.97;;;14.62;41.73
31088;BME280;17745;55.914;37.554;2023-05-27T21:28:44;99191.34;;;14.63;41.90
31088;BME280;17745;55.914;37.554;2023-05-27T21:31:21;99189.16;;;14.36;42.74
31088;BME280;17745;55.914;37.554;2023-05-27T21:34:04;99193.63;;;14.06;43.60
31088;BME280;17745;55.914;37.554;2023-05-27T21:36:40;99183.00;;;14.00;43.81
31088;BME280;17745;55.914;37.554;2023-05-27T21:39:44;99185.84;;;14.14;43.74
31088;BME280;17745;55.914;37.554;2023-05-27T21:42:21;99178.06;;;13.78;44.82
31088;BME280;17745;55.914;37.554;2023-05-27T21:44:54;99178.53;;;13.85;44.93
31088;BME280;17745;55.914;37.554;2023-05-27T21:47:28;99161.22;;;13.93;44.73
31088;BME280;17745;55.914;37.554;2023-05-27T21:50:12;99188.53;;;13.54;45.80
31088;BME280;17745;55.914;37.554;2023-05-27T21:52:51;99183.72;;;13.66;45.65
31088;BME280;17745;55.914;37.554;2023-05-27T21:55:34;99178.69;;;13.60;45.95
31088;BME280;17745;55.914;37.554;2023-05-27T21:58:39;99174.16;;;13.55;46.30
31088;BME280;17745;55.914;37.554;2023-05-27T22:01:26;99164.28;;;14.11;44.94
31088;BME280;17745;55.914;37.554;2023-05-27T22:04:24;99158.72;;;14.07;44.96
31088;BME280;17745;55.914;37.554;2023-05-27T22:07:24;99171.16;;;14.22;44.70
31088;BME280;17745;55.914;37.554;2023-05-27T22:10:10;99171.09;;;14.27;44.59
31088;BME280;17745;55.914;37.554;2023-05-27T22:12:48;99186.28;;;13.87;45.79
31088;BME280;17745;55.914;37.554;2023-05-27T22:15:31;99169.16;;;13.48;46.81
31088;BME280;17745;55.914;37.554;2023-05-27T22:21:33;99173.44;;;13.94;45.69
31088;BME280;17745;55.914;37.554;2023-05-27T22:24:24;99172.47;;;13.75;46.22
31088;BME280;17745;55.914;37.554;2023-05-27T22:26:54;99173.66;;;13.58;46.69
31088;BME280;17745;55.914;37.554;2023-05-27T22:29:27;99163.28;;;13.41;47.20
31088;BME280;17745;55.914;37.554;2023-05-27T22:32:04;99155.91;;;13.33;47.46
31088;BME280;17745;55.914;37.554;2023-05-27T22:34:37;99181.75;;;13.01;48.42
31088;BME280;17745;55.914;37.554;2023-05-27T22:37:12;99179.91;;;12.81;49.29
31088;BME280;17745;55.914;37.554;2023-05-27T22:39:46;99160.47;;;13.17;48.28
31088;BME280;17745;55.914;37.554;2023-05-27T22:42:18;99170.06;;;12.92;49.08
31088;BME280;17745;55.914;37.554;2023-05-27T22:44:48;99182.53;;;13.12;48.50
31088;BME280;17745;55.914;37.554;2023-05-27T22:47:17;99177.00;;;12.82;49.42
31088;BME280;17745;55.914;37.554;2023-05-27T22:49:45;99176.19;;;12.82;49.49
31088;BME280;17745;55.914;37.554;2023-05-27T22:52:14;99178.09;;;12.76;49.73
31088;BME280;17745;55.914;37.554;2023-05-27T22:54:42;99171.72;;;12.77;49.66
31088;BME280;17745;55.914;37.554;2023-05-27T22:57:12;99179.09;;;13.06;48.95
31088;BME280;17745;55.914;37.554;2023-05-27T22:59:40;99166.84;;;13.21;48.49
31088;BME280;17745;55.914;37.554;2023-05-27T23:02:08;99162.34;;;13.06;48.84
31088;BME280;17745;55.914;37.554;2023-05-27T23:04:37;99169.56;;;12.90;49.46
31088;BME280;17745;55.914;37.554;2023-05-27T23:07:07;99179.38;;;12.94;49.39
31088;BME280;17745;55.914;37.554;2023-05-27T23:09:37;99175.94;;;12.83;49.64
31088;BME280;17745;55.914;37.554;2023-05-27T23:12:05;99173.84;;;12.65;50.30
31088;BME280;17745;55.914;37.554;2023-05-27T23:14:34;99156.31;;;12.64;50.17
31088;BME280;17745;55.914;37.554;2023-05-27T23:17:02;99166.94;;;12.43;50.98
31088;BME280;17745;55.914;37.554;2023-05-27T23:19:29;99148.88;;;12.76;50.05
31088;BME280;17745;55.914;37.554;2023-05-27T23:22:04;99152.31;;;12.56;50.69
31088;BME280;17745;55.914;37.554;2023-05-27T23:24:31;99148.88;;;12.66;50.49
31088;BME280;17745;55.914;37.554;2023-05-27T23:27:03;99153.13;;;12.67;50.42
31088;BME280;17745;55.914;37.554;2023-05-27T23:29:32;99149.94;;;12.60;50.61
31088;BME280;17745;55.914;37.554;2023-05-27T23:32:04;99149.91;;;12.70;50.36
31088;BME280;17745;55.914;37.554;2023-05-27T23:34:38;99149.16;;;12.49;50.89
31088;BME280;17745;55.914;37.554;2023-05-27T23:37:07;99157.91;;;12.49;50.95
31088;BME280;17745;55.914;37.554;2023-05-27T23:39:34;99154.19;;;12.55;50.96
31088;BME280;17745;55.914;37.554;2023-05-27T23:42:03;99137.72;;;12.64;50.59
31088;BME280;17745;55.914;37.554;2023-05-27T23:44:32;99138.50;;;12.43;51.22
31088;BME280;17745;55.914;37.554;2023-05-27T23:47:00;99141.97;;;12.34;51.52
31088;BME280;17745;55.914;37.554;2023-05-27T23:49:29;99133.75;;;12.40;51.46
31088;BME280;17745;55.914;37.554;2023-05-27T23:51:57;99149.41;;;12.26;51.90
31088;BME280;17745;55.914;37.554;2023-05-27T23:54:27;99127.88;;;12.02;52.63
31088;BME280;17745;55.914;37.554;2023-05-27T23:56:55;99129.75;;;12.12;52.34
31088;BME280;17745;55.914;37.554;2023-05-27T23:59:23;99132.94;;;12.24;52.04
